createdAt,value
2023-02-18T00:01:14.973Z,10.52
2023-02-18T00:03:42.330Z,13.00
2023-02-18T00:06:17.117Z,14.95
2023-02-18T00:08:44.497Z,11.20
2023-02-18T00:11:12.973Z,11.33
2023-02-18T00:13:40.207Z,15.45
2023-02-18T00:16:08.786Z,9.68
2023-02-18T00:18:36.155Z,12.20
2023-02-18T00:21:06.627Z,10.93
2023-02-18T00:23:34.016Z,9.02
2023-02-18T00:26:05.471Z,10.40
2023-02-18T00:28:32.740Z,15.20
2023-02-18T00:31:00.092Z,19.40
2023-02-18T00:33:27.307Z,14.65
2023-02-18T00:35:54.568Z,16.58
2023-02-18T00:38:23.061Z,16.27
2023-02-18T00:40:50.251Z,18.95
2023-02-18T00:43:17.466Z,14.95
2023-02-18T00:45:44.642Z,12.75
2023-02-18T00:48:11.789Z,17.42
2023-02-18T00:50:38.970Z,16.38
2023-02-18T00:53:06.175Z,14.57
2023-02-18T00:55:33.883Z,16.40
2023-02-18T00:58:02.266Z,14.90
2023-02-18T01:00:29.494Z,13.60
2023-02-18T01:02:56.653Z,13.20
2023-02-18T01:05:23.795Z,15.35
2023-02-18T01:07:50.976Z,14.73
2023-02-18T01:10:19.233Z,14.25
2023-02-18T01:12:46.519Z,15.27
2023-02-18T01:15:15.117Z,17.55
2023-02-18T01:17:42.265Z,17.08
2023-02-18T01:20:09.929Z,18.27
2023-02-18T01:22:37.078Z,18.05
2023-02-18T01:25:04.317Z,15.43
2023-02-18T01:27:31.522Z,16.50
2023-02-18T01:29:58.686Z,16.23
2023-02-18T01:32:25.921Z,12.70
2023-02-18T01:34:53.098Z,18.33
2023-02-18T01:37:20.359Z,14.90
2023-02-18T01:39:47.585Z,12.83
2023-02-18T01:42:21.973Z,21.52
2023-02-18T01:44:49.285Z,16.03
2023-02-18T01:47:16.711Z,16.63
2023-02-18T01:49:46.011Z,18.55
2023-02-18T01:52:15.181Z,16.20
2023-02-18T01:54:43.305Z,25.23
2023-02-18T01:57:11.529Z,19.05
2023-02-18T01:59:39.685Z,16.40
2023-02-18T02:02:07.931Z,16.98
2023-02-18T02:04:35.108Z,19.85
2023-02-18T02:07:02.267Z,13.82
2023-02-18T02:09:29.794Z,23.15
2023-02-18T02:12:09.242Z,15.90
2023-02-18T02:14:53.131Z,15.13
2023-02-18T02:17:20.270Z,13.65
2023-02-18T02:20:05.886Z,16.55
2023-02-18T02:23:08.514Z,18.13
2023-02-18T02:25:35.675Z,15.20
2023-02-18T02:28:11.696Z,29.30
2023-02-18T02:30:59.752Z,15.35
2023-02-18T02:33:38.108Z,21.70
2023-02-18T02:36:05.510Z,15.23
2023-02-18T02:38:38.660Z,18.73
2023-02-18T02:41:11.882Z,25.38
2023-02-18T02:43:44.952Z,19.53
2023-02-18T02:46:13.110Z,21.45
2023-02-18T02:48:59.278Z,17.65
2023-02-18T02:51:47.327Z,20.92
2023-02-18T02:54:21.944Z,23.05
2023-02-18T02:56:49.242Z,21.83
2023-02-18T02:59:21.148Z,17.92
2023-02-18T03:01:48.835Z,18.70
2023-02-18T03:04:35.193Z,18.45
2023-02-18T03:07:05.647Z,19.73
2023-02-18T03:09:35.849Z,16.23
2023-02-18T03:12:21.560Z,20.20
2023-02-18T03:14:52.521Z,19.02
2023-02-18T03:17:24.502Z,16.40
2023-02-18T03:19:58.908Z,21.40
2023-02-18T03:22:33.215Z,16.23
2023-02-18T03:25:00.376Z,17.02
2023-02-18T03:27:31.833Z,18.85
2023-02-18T03:30:18.528Z,19.55
2023-02-18T03:32:46.103Z,18.67
2023-02-18T03:35:14.083Z,20.52
2023-02-18T03:37:43.036Z,19.40
2023-02-18T03:40:10.395Z,19.05
2023-02-18T03:42:37.567Z,17.55
2023-02-18T03:45:04.830Z,21.67
2023-02-18T03:47:31.975Z,20.33
2023-02-18T03:49:59.140Z,21.13
2023-02-18T03:52:26.268Z,17.30
2023-02-18T03:54:53.414Z,21.30
2023-02-18T03:57:20.576Z,18.45
2023-02-18T03:59:47.692Z,20.67
2023-02-18T04:02:14.841Z,16.60
2023-02-18T04:04:42.072Z,18.92
2023-02-18T04:07:09.246Z,19.90
2023-02-18T04:09:36.392Z,20.65
2023-02-18T04:12:03.548Z,24.55
2023-02-18T04:14:30.715Z,22.50
2023-02-18T04:16:57.847Z,14.10
2023-02-18T04:19:25.092Z,21.98
2023-02-18T04:21:52.213Z,21.90
2023-02-18T04:24:19.387Z,16.00
2023-02-18T04:26:46.744Z,17.25
2023-02-18T04:29:13.889Z,16.17
2023-02-18T04:31:41.116Z,16.50
2023-02-18T04:34:08.337Z,18.95
2023-02-18T04:36:35.513Z,19.10
2023-02-18T04:39:02.640Z,17.80
2023-02-18T04:41:29.947Z,16.88
2023-02-18T04:43:57.142Z,19.83
2023-02-18T04:46:24.382Z,15.98
2023-02-18T04:48:51.596Z,21.88
2023-02-18T04:51:18.766Z,24.45
2023-02-18T04:53:46.306Z,17.83
2023-02-18T04:56:13.472Z,24.45
2023-02-18T04:58:40.608Z,17.10
2023-02-18T05:01:08.075Z,15.05
2023-02-18T05:03:35.295Z,12.05
2023-02-18T05:06:03.353Z,20.98
2023-02-18T05:08:30.513Z,18.88
2023-02-18T05:10:57.701Z,18.75
2023-02-18T05:13:24.928Z,21.55
2023-02-18T05:15:52.110Z,17.88
2023-02-18T05:18:19.328Z,19.00
2023-02-18T05:20:46.519Z,18.40
2023-02-18T05:23:14.744Z,21.20
2023-02-18T05:25:41.935Z,21.87
2023-02-18T05:28:09.098Z,18.70
2023-02-18T05:30:36.296Z,22.70
2023-02-18T05:33:03.508Z,17.50
2023-02-18T05:35:30.750Z,16.55
2023-02-18T05:37:57.875Z,21.15
2023-02-18T05:40:25.168Z,22.48
2023-02-18T05:42:52.323Z,18.30
2023-02-18T05:45:19.504Z,20.92
2023-02-18T05:47:46.686Z,19.15
2023-02-18T05:50:13.905Z,18.63
2023-02-18T05:52:41.076Z,12.73
2023-02-18T05:55:08.370Z,12.30
2023-02-18T05:57:35.503Z,20.60
2023-02-18T06:00:02.633Z,18.13
2023-02-18T06:02:29.886Z,19.53
2023-02-18T06:04:57.043Z,14.20
2023-02-18T06:07:24.253Z,16.23
2023-02-18T06:09:51.405Z,19.85
2023-02-18T06:12:18.611Z,17.17
2023-02-18T06:14:45.801Z,14.27
2023-02-18T06:17:12.990Z,15.30
2023-02-18T06:19:40.388Z,18.80
2023-02-18T06:22:07.664Z,13.45
2023-02-18T06:24:34.847Z,14.65
2023-02-18T06:27:02.084Z,17.47
2023-02-18T06:29:31.251Z,14.03
2023-02-18T06:31:59.240Z,15.40
2023-02-18T06:34:26.684Z,16.52
2023-02-18T06:36:53.833Z,11.43
2023-02-18T06:39:21.035Z,14.23
2023-02-18T06:41:48.187Z,12.52
2023-02-18T06:44:16.989Z,11.32
2023-02-18T06:46:44.557Z,12.20
2023-02-18T06:49:11.819Z,11.32
2023-02-18T06:51:39.125Z,11.35
2023-02-18T06:54:06.787Z,15.68
2023-02-18T06:56:34.027Z,12.18
2023-02-18T06:59:01.216Z,10.73
2023-02-18T07:01:28.632Z,10.18
2023-02-18T07:03:55.859Z,7.72
2023-02-18T07:06:23.124Z,7.05
2023-02-18T07:08:50.260Z,7.88
2023-02-18T07:11:17.620Z,6.35
2023-02-18T07:13:44.833Z,7.75
2023-02-18T07:16:12.298Z,7.32
2023-02-18T07:18:39.746Z,5.37
2023-02-18T07:21:06.881Z,6.22
2023-02-18T07:23:34.040Z,3.92
2023-02-18T07:26:07.926Z,5.15
2023-02-18T07:28:35.208Z,6.38
2023-02-18T07:31:02.490Z,6.47
2023-02-18T07:33:29.681Z,6.90
2023-02-18T07:36:00.443Z,5.90
2023-02-18T07:38:27.757Z,4.63
2023-02-18T07:40:54.978Z,5.75
2023-02-18T07:43:22.497Z,6.78
2023-02-18T07:45:49.697Z,5.45
2023-02-18T07:48:17.115Z,6.00
2023-02-18T07:50:45.033Z,4.30
2023-02-18T07:53:12.638Z,7.00
2023-02-18T07:55:51.768Z,5.38
2023-02-18T07:58:23.448Z,6.82
2023-02-18T08:00:50.798Z,7.93
2023-02-18T08:03:18.374Z,3.83
2023-02-18T08:05:45.596Z,7.40
2023-02-18T08:08:15.742Z,5.28
2023-02-18T08:10:43.032Z,6.32
2023-02-18T08:13:10.288Z,7.10
2023-02-18T08:15:37.472Z,13.00
2023-02-18T08:18:05.008Z,7.35
2023-02-18T08:20:32.201Z,6.47
2023-02-18T08:22:59.390Z,6.93
2023-02-18T08:25:29.624Z,7.72
2023-02-18T08:27:57.313Z,10.98
2023-02-18T08:30:24.587Z,6.57
2023-02-18T08:32:51.775Z,9.88
2023-02-18T08:35:18.995Z,6.82
2023-02-18T08:37:53.021Z,8.53
2023-02-18T08:40:21.568Z,7.87
2023-02-18T08:42:48.747Z,9.20
2023-02-18T08:45:15.919Z,6.60
2023-02-18T08:48:19.757Z,7.63
2023-02-18T08:50:30.186Z,6.03
2023-02-18T08:53:00.360Z,8.00
2023-02-18T08:55:28.302Z,12.07
2023-02-18T08:57:55.446Z,9.90
2023-02-18T09:00:22.713Z,8.13
2023-02-18T09:02:49.902Z,8.02
2023-02-18T09:05:17.129Z,7.22
2023-02-18T09:07:44.282Z,9.75
2023-02-18T09:10:11.585Z,8.18
2023-02-18T09:12:38.787Z,9.55
2023-02-18T09:15:06.529Z,9.05
2023-02-18T09:17:33.764Z,8.30
2023-02-18T09:20:00.914Z,9.65
2023-02-18T09:22:28.051Z,9.82
2023-02-18T09:24:55.222Z,8.82
2023-02-18T09:27:22.472Z,7.03
2023-02-18T09:29:50.885Z,10.70
2023-02-18T09:32:32.516Z,6.78
2023-02-18T09:35:01.734Z,6.63
2023-02-18T09:37:28.960Z,8.25
2023-02-18T09:39:56.145Z,9.18
2023-02-18T09:42:25.435Z,7.82
2023-02-18T09:44:53.276Z,11.63
2023-02-18T09:47:22.551Z,11.27
2023-02-18T09:49:50.493Z,7.57
2023-02-18T09:52:25.457Z,8.43
2023-02-18T09:54:52.686Z,8.63
2023-02-18T09:57:24.403Z,10.25
2023-02-18T09:59:52.973Z,7.30
2023-02-18T10:02:20.940Z,8.60
2023-02-18T10:04:52.115Z,8.07
2023-02-18T10:07:21.936Z,8.30
2023-02-18T10:09:49.097Z,8.02
2023-02-18T10:12:17.475Z,6.68
2023-02-18T10:14:45.262Z,7.25
2023-02-18T10:17:13.763Z,9.55
2023-02-18T10:19:43.744Z,7.88
2023-02-18T10:22:14.003Z,6.63
2023-02-18T10:24:43.608Z,9.63
2023-02-18T10:27:10.940Z,10.13
2023-02-18T10:29:38.126Z,9.80
2023-02-18T10:32:10.931Z,40.78
2023-02-18T10:34:41.976Z,20.63
2023-02-18T10:37:26.537Z,8.75
2023-02-18T10:39:53.651Z,35.65
2023-02-18T10:42:39.403Z,7.97
2023-02-18T10:45:13.133Z,99.07
2023-02-18T10:47:41.219Z,13.25
2023-02-18T10:50:11.373Z,12.65
2023-02-18T10:52:43.329Z,88.75
2023-02-18T10:55:11.685Z,234.65
2023-02-18T10:57:51.892Z,142.10
2023-02-18T11:00:19.230Z,33.75
2023-02-18T11:02:46.702Z,11.85
2023-02-18T11:05:32.054Z,8.37
2023-02-18T11:07:59.414Z,16.45
2023-02-18T11:10:27.439Z,16.15
2023-02-18T11:12:59.032Z,13.52
2023-02-18T11:15:27.383Z,10.80
2023-02-18T11:17:55.517Z,7.05
2023-02-18T11:20:22.663Z,17.50
2023-02-18T11:22:49.910Z,16.23
2023-02-18T11:25:21.208Z,6.95
2023-02-18T11:27:56.416Z,5.45
2023-02-18T11:30:24.715Z,8.10
2023-02-18T11:32:56.345Z,6.07
2023-02-18T11:35:24.911Z,3.57
2023-02-18T11:37:52.232Z,4.13
2023-02-18T11:40:26.399Z,3.97
2023-02-18T11:42:53.598Z,7.38
2023-02-18T11:45:28.208Z,4.65
2023-02-18T11:48:01.830Z,3.83
2023-02-18T11:50:31.592Z,2.38
2023-02-18T11:52:59.836Z,1.70
2023-02-18T11:55:27.802Z,3.85
2023-02-18T11:57:59.239Z,2.60
2023-02-18T12:00:42.609Z,1.20
2023-02-18T12:03:22.083Z,2.42
2023-02-18T12:05:49.241Z,2.28
2023-02-18T12:08:26.379Z,2.08
2023-02-18T12:11:04.037Z,2.47
2023-02-18T12:13:41.981Z,3.58
2023-02-18T12:16:16.108Z,4.63
2023-02-18T12:18:43.369Z,1.45
2023-02-18T12:21:42.810Z,1.45
2023-02-18T12:24:22.276Z,1.35
2023-02-18T12:26:55.750Z,1.40
2023-02-18T12:29:22.886Z,4.60
2023-02-18T12:32:05.171Z,4.15
2023-02-18T12:34:38.539Z,7.93
2023-02-18T12:37:24.241Z,2.53
2023-02-18T12:39:57.506Z,2.50
2023-02-18T12:42:24.929Z,1.83
2023-02-18T12:44:58.384Z,1.73
2023-02-18T12:47:55.097Z,1.05
2023-02-18T12:50:31.524Z,1.02
2023-02-18T12:52:58.773Z,2.47
2023-02-18T12:55:28.959Z,1.58
2023-02-18T12:58:22.517Z,1.02
2023-02-18T13:01:08.442Z,1.40
2023-02-18T13:03:35.610Z,2.88
2023-02-18T13:06:22.912Z,2.80
2023-02-18T13:08:50.214Z,2.22
2023-02-18T13:11:20.745Z,4.72
2023-02-18T13:14:08.159Z,5.53
2023-02-18T13:16:35.319Z,4.10
2023-02-18T13:19:02.481Z,23.35
2023-02-18T13:21:30.540Z,5.40
2023-02-18T13:23:59.451Z,10.68
2023-02-18T13:26:26.718Z,9.52
2023-02-18T13:29:04.342Z,20.80
2023-02-18T13:31:50.485Z,40.60
2023-02-18T13:34:25.703Z,6.30
2023-02-18T13:37:22.244Z,4.83
2023-02-18T13:39:58.695Z,3.60
2023-02-18T13:42:31.996Z,4.80
2023-02-18T13:44:59.146Z,3.42
2023-02-18T13:47:39.355Z,2.67
2023-02-18T13:50:27.741Z,3.15
2023-02-18T13:53:13.531Z,5.28
2023-02-18T13:55:59.483Z,2.45
2023-02-18T13:58:30.521Z,3.17
2023-02-18T14:01:05.624Z,3.17
2023-02-18T14:03:36.157Z,3.80
2023-02-18T14:06:03.438Z,5.57
2023-02-18T14:08:37.027Z,5.93
2023-02-18T14:11:14.008Z,3.60
2023-02-18T14:13:44.408Z,3.20
2023-02-18T14:16:11.762Z,6.35
2023-02-18T14:18:41.960Z,5.93
2023-02-18T14:21:15.003Z,2.78
2023-02-18T14:23:42.886Z,1.95
2023-02-18T14:26:10.049Z,4.55
2023-02-18T14:28:37.636Z,5.53
2023-02-18T14:31:14.440Z,6.32
2023-02-18T14:33:43.000Z,3.10
2023-02-18T14:36:16.199Z,3.57
2023-02-18T14:39:01.510Z,2.42
2023-02-18T14:41:34.538Z,3.53
2023-02-18T14:44:16.813Z,2.17
2023-02-18T14:47:02.904Z,3.67
2023-02-18T14:49:40.475Z,3.65
2023-02-18T14:52:10.937Z,7.65
2023-02-18T14:54:38.154Z,4.93
2023-02-18T14:57:06.386Z,5.32
2023-02-18T14:59:37.179Z,8.43
2023-02-18T15:02:04.844Z,13.70
2023-02-18T15:04:32.035Z,27.58
2023-02-18T15:07:03.036Z,5.97
2023-02-18T15:09:30.307Z,10.47
2023-02-18T15:11:58.920Z,12.73
2023-02-18T15:14:46.407Z,12.38
2023-02-18T15:17:14.893Z,6.60
2023-02-18T15:19:43.116Z,8.00
2023-02-18T15:22:20.765Z,4.95
2023-02-18T15:24:48.023Z,6.28
2023-02-18T15:27:16.043Z,3.55
2023-02-18T15:29:43.457Z,2.60
2023-02-18T15:32:21.068Z,2.03
2023-02-18T15:34:58.890Z,1.90
2023-02-18T15:37:26.064Z,2.53
2023-02-18T15:39:53.207Z,1.03
2023-02-18T15:42:30.748Z,3.20
2023-02-18T15:44:58.825Z,3.05
2023-02-18T15:47:26.018Z,1.73
2023-02-18T15:49:54.300Z,2.10
2023-02-18T15:52:40.052Z,3.10
2023-02-18T15:55:21.846Z,3.75
2023-02-18T15:57:49.297Z,4.32
2023-02-18T16:00:19.650Z,5.13
2023-02-18T16:03:05.966Z,5.80
2023-02-18T16:05:37.341Z,3.75
2023-02-18T16:08:08.346Z,4.28
2023-02-18T16:10:36.956Z,2.17
2023-02-18T16:13:04.697Z,4.53
2023-02-18T16:15:32.791Z,3.45
2023-02-18T16:18:00.288Z,1.58
2023-02-18T16:20:36.059Z,3.30
2023-02-18T16:23:04.794Z,2.60
2023-02-18T16:25:37.202Z,1.02
2023-02-18T16:28:04.338Z,3.08
2023-02-18T16:30:35.619Z,1.58
2023-02-18T16:33:02.996Z,2.20
2023-02-18T16:35:43.981Z,2.28
2023-02-18T16:38:20.543Z,3.00
2023-02-18T16:40:47.706Z,2.92
2023-02-18T16:43:15.999Z,3.15
2023-02-18T16:45:43.948Z,2.13
2023-02-18T16:48:29.960Z,3.60
2023-02-18T16:50:57.211Z,3.72
2023-02-18T16:53:24.402Z,6.75
2023-02-18T16:55:51.747Z,27.50
2023-02-18T16:58:18.998Z,18.38
2023-02-18T17:00:46.200Z,10.13
2023-02-18T17:03:13.562Z,5.47
2023-02-18T17:05:41.121Z,3.83
2023-02-18T17:08:23.194Z,3.70
2023-02-18T17:10:51.239Z,2.45
2023-02-18T17:13:19.620Z,12.40
2023-02-18T17:15:47.982Z,5.70
2023-02-18T17:18:15.229Z,8.07
2023-02-18T17:20:42.619Z,9.05
2023-02-18T17:23:11.385Z,10.00
2023-02-18T17:25:39.347Z,8.07
2023-02-18T17:28:06.571Z,12.55
2023-02-18T17:30:35.999Z,12.00
2023-02-18T17:33:03.475Z,16.10
2023-02-18T17:35:30.637Z,11.60
2023-02-18T17:37:57.909Z,12.27
2023-02-18T17:40:25.924Z,12.60
2023-02-18T17:42:53.768Z,24.17
2023-02-18T17:45:33.674Z,16.05
2023-02-18T17:48:01.233Z,23.67
2023-02-18T17:50:28.826Z,15.20
2023-02-18T17:52:56.015Z,12.80
2023-02-18T17:55:24.146Z,18.55
2023-02-18T17:57:51.507Z,13.05
2023-02-18T18:00:23.154Z,11.73
2023-02-18T18:02:50.305Z,10.45
2023-02-18T18:05:27.211Z,11.57
2023-02-18T18:07:54.423Z,13.63
2023-02-18T18:10:22.672Z,9.93
2023-02-18T18:12:50.211Z,10.40
2023-02-18T18:15:36.253Z,9.85
2023-02-18T18:18:03.491Z,10.15
2023-02-18T18:20:31.322Z,11.93
2023-02-18T18:22:58.828Z,9.25
2023-02-18T18:25:26.099Z,10.40
2023-02-18T18:27:53.797Z,12.48
2023-02-18T18:30:21.955Z,10.95
2023-02-18T18:32:49.190Z,10.82
2023-02-18T18:35:20.622Z,9.80
2023-02-18T18:37:47.829Z,7.72
2023-02-18T18:40:15.792Z,9.40
2023-02-18T18:42:43.039Z,7.93
2023-02-18T18:45:17.739Z,11.82
2023-02-18T18:47:45.143Z,9.05
2023-02-18T18:50:12.681Z,8.63
2023-02-18T18:52:40.397Z,9.18
2023-02-18T18:55:15.223Z,11.02
2023-02-18T18:57:42.392Z,6.97
2023-02-18T19:00:09.991Z,9.05
2023-02-18T19:02:37.228Z,13.75
2023-02-18T19:05:05.006Z,11.90
2023-02-18T19:07:32.273Z,8.93
2023-02-18T19:09:59.445Z,8.18
2023-02-18T19:12:26.601Z,8.67
2023-02-18T19:14:53.849Z,8.18
2023-02-18T19:17:21.106Z,8.20
2023-02-18T19:19:48.579Z,10.43
2023-02-18T19:22:15.840Z,9.20
2023-02-18T19:24:43.343Z,9.60
2023-02-18T19:27:10.636Z,10.82
2023-02-18T19:29:37.862Z,8.63
2023-02-18T19:32:05.171Z,8.93
2023-02-18T19:34:32.376Z,8.73
2023-02-18T19:37:00.540Z,9.63
2023-02-18T19:39:27.701Z,7.88
2023-02-18T19:41:54.874Z,9.07
2023-02-18T19:44:22.046Z,12.98
2023-02-18T19:46:49.280Z,10.60
2023-02-18T19:49:16.401Z,12.88
2023-02-18T19:51:43.528Z,13.02
2023-02-18T19:54:10.870Z,10.25
2023-02-18T19:56:38.039Z,20.00
2023-02-18T19:59:05.200Z,16.48
2023-02-18T20:01:32.813Z,15.13
2023-02-18T20:04:00.423Z,18.83
2023-02-18T20:06:27.599Z,18.05
2023-02-18T20:08:55.269Z,22.40
2023-02-18T20:11:22.913Z,20.15
2023-02-18T20:13:50.172Z,30.90
2023-02-18T20:16:17.452Z,21.90
2023-02-18T20:18:44.685Z,27.07
2023-02-18T20:21:12.419Z,27.63
2023-02-18T20:23:39.720Z,54.40
2023-02-18T20:26:08.132Z,22.73
2023-02-18T20:28:35.309Z,18.98
2023-02-18T20:31:06.704Z,26.23
2023-02-18T20:33:34.014Z,20.33
2023-02-18T20:36:04.463Z,23.35
2023-02-18T20:38:31.944Z,28.23
2023-02-18T20:41:06.029Z,20.55
2023-02-18T20:43:33.255Z,27.42
2023-02-18T20:46:04.191Z,24.70
2023-02-18T20:48:31.723Z,27.70
2023-02-18T20:51:03.370Z,21.17
2023-02-18T20:53:31.546Z,21.55
2023-02-18T20:55:58.815Z,23.77
2023-02-18T20:58:26.188Z,18.30
2023-02-18T21:01:00.459Z,21.80
2023-02-18T21:03:27.830Z,23.00
2023-02-18T21:05:58.502Z,21.83
2023-02-18T21:08:25.955Z,28.13
2023-02-18T21:10:53.306Z,39.33
2023-02-18T21:13:20.898Z,24.92
2023-02-18T21:15:48.153Z,26.20
2023-02-18T21:18:15.350Z,26.23
2023-02-18T21:20:42.509Z,26.20
2023-02-18T21:23:09.757Z,26.30
2023-02-18T21:25:37.068Z,33.33
2023-02-18T21:28:04.456Z,35.08
2023-02-18T21:30:35.305Z,27.60
2023-02-18T21:33:02.489Z,24.33
2023-02-18T21:35:29.672Z,27.17
2023-02-18T21:37:56.927Z,26.65
2023-02-18T21:40:24.188Z,31.23
2023-02-18T21:42:51.419Z,27.90
2023-02-18T21:45:18.807Z,26.47
2023-02-18T21:47:46.032Z,27.20
2023-02-18T21:50:15.544Z,27.27
2023-02-18T21:52:43.076Z,28.60
2023-02-18T21:55:10.455Z,28.02
2023-02-18T21:57:38.494Z,23.95
2023-02-18T22:00:19.655Z,27.63
2023-02-18T22:02:47.379Z,30.15
2023-02-18T22:05:17.165Z,29.00
2023-02-18T22:07:44.516Z,31.05
2023-02-18T22:10:11.690Z,26.50
2023-02-18T22:12:40.142Z,29.15
2023-02-18T22:15:09.417Z,29.95
2023-02-18T22:17:36.662Z,33.55
2023-02-18T22:20:05.479Z,29.35
2023-02-18T22:22:32.806Z,29.50
2023-02-18T22:25:00.000Z,27.85
2023-02-18T22:27:27.233Z,29.35
2023-02-18T22:29:54.874Z,28.85
2023-02-18T22:32:22.186Z,25.88
2023-02-18T22:34:49.414Z,28.13
2023-02-18T22:37:16.546Z,27.20
2023-02-18T22:39:43.736Z,31.38
2023-02-18T22:42:10.911Z,25.83
2023-02-18T22:44:39.660Z,27.83
2023-02-18T22:47:06.846Z,30.15
2023-02-18T22:49:34.048Z,27.02
2023-02-18T22:52:01.183Z,26.55
2023-02-18T22:54:28.476Z,22.83
2023-02-18T22:56:55.664Z,28.65
2023-02-18T22:59:22.843Z,27.60
2023-02-18T23:01:50.473Z,25.35
2023-02-18T23:04:18.299Z,25.70
2023-02-18T23:06:45.864Z,33.95
2023-02-18T23:09:17.019Z,24.15
2023-02-18T23:11:44.481Z,29.88
2023-02-18T23:14:23.903Z,27.20
2023-02-18T23:17:13.113Z,24.80
2023-02-18T23:19:43.187Z,24.08
2023-02-18T23:22:11.226Z,25.53
2023-02-18T23:24:39.400Z,29.77
2023-02-18T23:27:06.738Z,22.73
2023-02-18T23:29:33.999Z,21.90
2023-02-18T23:32:01.420Z,26.30
2023-02-18T23:34:28.945Z,19.52
2023-02-18T23:36:56.115Z,25.13
2023-02-18T23:39:23.425Z,27.15
2023-02-18T23:41:50.819Z,19.05
2023-02-18T23:44:18.908Z,21.08
2023-02-18T23:46:46.139Z,22.40
2023-02-18T23:49:16.997Z,21.38
2023-02-18T23:51:44.266Z,23.77
2023-02-18T23:54:11.464Z,23.87
2023-02-18T23:56:38.673Z,22.27
2023-02-18T23:59:05.933Z,22.98
